Time;durP1;ratioP1;P1;durP2;ratioP2;P2;SDS_P1;SDS_P2;PMS_P1;PMS_P2;Temp;Humidity;BMP_temperature;BMP_pressure;BME280_temperature;BME280_humidity;BME280_pressure;Samples;Min_cycle;Max_cycle;Signal;HPM_P1;HPM_P2
2022/09/15 00:00:54;;;;;;;1.50;0.97;;;15.70;98.20;;;;;;4997337;28;20489;-74
2022/09/15 00:03:25;;;;;;;1.53;0.90;;;15.70;98.20;;;;;;4996562;28;20499;-75
2022/09/15 00:05:54;;;;;;;1.53;1.00;;;15.70;98.20;;;;;;4995848;28;20484;-75
2022/09/15 00:08:22;;;;;;;1.53;1.00;;;15.70;98.20;;;;;;4996502;28;20516;-75
2022/09/15 00:11:01;;;;;;;1.50;1.00;;;15.70;98.20;;;;;;4997064;28;20515;-76
2022/09/15 00:13:29;;;;;;;1.60;1.00;;;15.60;98.20;;;;;;4996230;28;20463;-76
2022/09/15 00:15:58;;;;;;;1.57;1.00;;;15.60;98.20;;;;;;4995874;28;20465;-75
2022/09/15 00:18:26;;;;;;;1.57;1.00;;;15.50;98.20;;;;;;4995484;28;20473;-76
2022/09/15 00:20:53;;;;;;;1.50;1.00;;;15.50;98.20;;;;;;4996385;28;20492;-75
2022/09/15 00:23:20;;;;;;;1.50;1.00;;;15.40;98.20;;;;;;4993136;28;20469;-77
2022/09/15 00:25:50;;;;;;;1.53;0.97;;;15.40;98.20;;;;;;4981219;28;20830;-76
2022/09/15 00:28:19;;;;;;;1.53;1.00;;;15.30;98.20;;;;;;4981654;28;20488;-74
2022/09/15 00:30:49;;;;;;;1.57;1.00;;;15.30;98.20;;;;;;4991299;28;20468;-76
2022/09/15 00:33:17;;;;;;;1.57;0.90;;;15.30;98.20;;;;;;4991096;28;20476;-74
2022/09/15 00:35:45;;;;;;;1.57;1.00;;;15.20;98.20;;;;;;4991121;28;20469;-75
2022/09/15 00:38:13;;;;;;;1.50;1.00;;;15.20;98.20;;;;;;4991607;28;20954;-75
2022/09/15 00:40:45;;;;;;;1.53;1.00;;;15.20;98.20;;;;;;4991629;28;20489;-76
2022/09/15 00:43:15;;;;;;;1.57;1.00;;;15.10;98.20;;;;;;4990803;28;20508;-75
2022/09/15 00:45:42;;;;;;;1.53;1.00;;;15.10;98.20;;;;;;4984201;28;20476;-76
2022/09/15 00:48:13;;;;;;;1.53;1.00;;;15.00;98.20;;;;;;4983819;28;20855;-76
2022/09/15 00:50:43;;;;;;;1.53;1.00;;;15.00;98.20;;;;;;4991304;28;20468;-76
2022/09/15 00:53:12;;;;;;;1.57;0.90;;;15.00;98.20;;;;;;4990466;28;20504;-77
2022/09/15 00:55:44;;;;;;;1.50;1.00;;;15.00;98.20;;;;;;4982232;28;20918;-76
2022/09/15 00:58:16;;;;;;;1.53;1.00;;;14.90;98.20;;;;;;4980340;28;20959;-77
2022/09/15 01:00:48;;;;;;;1.57;1.00;;;14.90;98.20;;;;;;4990464;28;20500;-77
2022/09/15 01:03:16;;;;;;;1.53;1.00;;;14.90;98.20;;;;;;4990407;28;20473;-75
2022/09/15 01:05:47;;;;;;;1.57;1.00;;;14.90;98.20;;;;;;4989369;28;20928;-76
2022/09/15 01:08:18;;;;;;;1.60;1.10;;;14.90;98.20;;;;;;4987259;28;20467;-75
2022/09/15 01:10:46;;;;;;;1.50;1.00;;;14.80;98.20;;;;;;4977685;28;20469;-74
2022/09/15 01:13:15;;;;;;;1.53;1.00;;;14.80;98.20;;;;;;4975279;28;20892;-77
2022/09/15 01:15:52;;;;;;;1.57;1.00;;;14.80;98.20;;;;;;4987383;28;20504;-76
2022/09/15 01:18:27;;;;;;;1.53;1.00;;;14.80;98.20;;;;;;4963854;28;21002;-76
2022/09/15 01:21:16;;;;;;;1.57;1.00;;;14.80;98.20;;;;;;4979538;28;20533;-77
2022/09/15 01:24:27;;;;;;;1.53;1.00;;;14.80;98.20;;;;;;4981662;28;21029;-76
2022/09/15 01:27:02;;;;;;;1.50;1.00;;;14.80;98.20;;;;;;4975968;28;20481;-76
2022/09/15 01:30:09;;;;;;;1.53;1.00;;;14.80;98.20;;;;;;4981882;28;20973;-76
2022/09/15 01:33:05;;;;;;;1.60;1.10;;;14.80;98.20;;;;;;4988243;28;20500;-76
2022/09/15 01:35:47;;;;;;;1.60;1.20;;;14.80;98.20;;;;;;4984778;28;20621;-76
2022/09/15 01:38:21;;;;;;;1.50;1.00;;;14.80;98.20;;;;;;4984945;28;20465;-76
2022/09/15 01:40:55;;;;;;;1.53;1.00;;;14.80;98.20;;;;;;4990057;28;20488;-76
2022/09/15 01:43:25;;;;;;;1.53;1.00;;;14.80;98.20;;;;;;4989051;28;20497;-77
2022/09/15 01:45:53;;;;;;;1.60;1.10;;;14.80;98.20;;;;;;4981530;28;20536;-75
2022/09/15 01:48:24;;;;;;;1.50;1.00;;;14.80;98.20;;;;;;4985972;28;20469;-75
2022/09/15 01:50:54;;;;;;;1.57;1.00;;;14.80;98.20;;;;;;4987927;28;20512;-76
2022/09/15 01:53:23;;;;;;;1.53;1.00;;;14.80;98.20;;;;;;4986693;28;20471;-75
2022/09/15 01:55:54;;;;;;;1.50;0.90;;;14.80;98.20;;;;;;4980017;28;20552;-77
2022/09/15 01:58:22;;;;;;;1.53;1.00;;;14.80;98.20;;;;;;4978127;28;20576;-75
2022/09/15 02:00:55;;;;;;;1.57;1.10;;;14.80;98.20;;;;;;4989558;28;20658;-76
2022/09/15 02:03:27;;;;;;;1.53;1.03;;;14.70;98.20;;;;;;4989843;28;20831;-76
2022/09/15 02:06:00;;;;;;;1.60;1.00;;;14.70;98.20;;;;;;4988294;28;20469;-75
2022/09/15 02:08:34;;;;;;;1.57;1.00;;;14.70;98.20;;;;;;4989341;28;20465;-75
2022/09/15 02:11:11;;;;;;;1.50;1.00;;;14.60;98.20;;;;;;4990683;28;20898;-76
2022/09/15 02:13:47;;;;;;;2.77;1.63;;;14.60;98.20;;;;;;4989177;28;20508;-75
2022/09/15 02:16:19;;;;;;;1.53;1.00;;;14.60;98.20;;;;;;4987988;28;20472;-75
2022/09/15 02:19:00;;;;;;;1.53;1.00;;;14.50;98.20;;;;;;4988447;28;20460;-75
2022/09/15 02:21:31;;;;;;;1.50;1.00;;;14.50;98.20;;;;;;4989347;28;20492;-75
2022/09/15 02:24:04;;;;;;;1.50;1.10;;;14.50;98.20;;;;;;4982471;28;21069;-75
2022/09/15 02:26:33;;;;;;;1.50;1.00;;;14.50;98.20;;;;;;4975345;28;20529;-75
2022/09/15 02:29:04;;;;;;;1.57;1.07;;;14.50;98.20;;;;;;4986462;28;20524;-74
2022/09/15 02:31:36;;;;;;;1.57;1.00;;;14.40;98.20;;;;;;4989329;28;20947;-76
2022/09/15 02:34:08;;;;;;;1.57;1.10;;;14.40;98.20;;;;;;4989193;28;20680;-76
2022/09/15 02:36:35;;;;;;;1.50;1.00;;;14.40;98.20;;;;;;4988274;28;20479;-73
2022/09/15 02:39:07;;;;;;;1.60;1.10;;;14.40;98.20;;;;;;4989275;28;20469;-75
2022/09/15 02:41:35;;;;;;;1.50;1.00;;;14.40;98.20;;;;;;4989412;28;20503;-76
2022/09/15 02:44:02;;;;;;;1.50;1.00;;;14.40;98.20;;;;;;4990236;28;21060;-76
2022/09/15 02:46:30;;;;;;;1.57;1.03;;;14.40;98.20;;;;;;4989079;28;20524;-76
2022/09/15 02:48:58;;;;;;;1.53;1.00;;;14.30;98.20;;;;;;4987482;28;20564;-76
2022/09/15 02:51:25;;;;;;;1.57;1.00;;;14.30;98.20;;;;;;4989406;28;20468;-76
2022/09/15 02:53:53;;;;;;;1.50;1.00;;;14.30;98.20;;;;;;4988778;28;20489;-76
2022/09/15 02:56:21;;;;;;;1.53;1.00;;;14.20;98.20;;;;;;4977230;28;20947;-76
2022/09/15 02:58:48;;;;;;;1.53;1.00;;;14.20;98.20;;;;;;4979661;28;20938;-76
2022/09/15 03:01:15;;;;;;;1.57;1.00;;;14.20;98.20;;;;;;4988360;28;20575;-76
2022/09/15 03:03:43;;;;;;;1.57;1.00;;;14.20;98.20;;;;;;4988746;28;20555;-76
2022/09/15 03:06:20;;;;;;;1.53;1.00;;;14.20;98.20;;;;;;4988189;28;20520;-77
2022/09/15 03:08:50;;;;;;;1.57;1.00;;;14.10;98.20;;;;;;4988771;28;20473;-76
2022/09/15 03:11:19;;;;;;;1.53;1.00;;;14.10;98.20;;;;;;4988410;28;20472;-76
2022/09/15 03:13:46;;;;;;;1.57;1.00;;;14.10;98.20;;;;;;4988155;28;20495;-76
2022/09/15 03:16:15;;;;;;;1.50;1.00;;;14.10;98.20;;;;;;4985685;28;20544;-75
2022/09/15 03:18:42;;;;;;;1.50;0.97;;;14.10;98.20;;;;;;4985918;28;20496;-77
2022/09/15 03:21:13;;;;;;;1.50;1.00;;;14.00;98.20;;;;;;4988322;28;20632;-76
2022/09/15 03:23:40;;;;;;;1.53;0.93;;;14.10;98.20;;;;;;4989972;28;20480;-75
2022/09/15 03:26:07;;;;;;;1.50;1.00;;;14.00;98.20;;;;;;4980108;28;21086;-76
2022/09/15 03:28:35;;;;;;;1.53;1.00;;;14.00;98.20;;;;;;4986097;28;20520;-76
2022/09/15 03:31:02;;;;;;;1.53;1.00;;;14.00;98.20;;;;;;4991335;28;20464;-75
2022/09/15 03:33:29;;;;;;;1.53;1.00;;;14.00;98.20;;;;;;4992483;28;20560;-75
2022/09/15 03:36:07;;;;;;;1.53;1.03;;;14.00;98.20;;;;;;4995088;28;20469;-75
2022/09/15 03:39:05;;;;;;;1.53;1.03;;;14.00;98.20;;;;;;4993512;28;20515;-75
2022/09/15 03:41:32;;;;;;;1.53;1.00;;;14.00;98.20;;;;;;4989531;28;20512;-75
2022/09/15 03:43:59;;;;;;;1.57;1.00;;;13.90;98.20;;;;;;4986575;28;20558;-75
2022/09/15 03:46:26;;;;;;;1.60;1.10;;;13.90;98.20;;;;;;4982893;28;20896;-76
2022/09/15 03:52:31;;;;;;;1.50;1.00;;;13.90;98.20;;;;;;4859329;29;20510;-75
2022/09/15 03:54:59;;;;;;;1.50;1.00;;;13.90;98.20;;;;;;4910048;28;20490;-75
2022/09/15 03:57:26;;;;;;;1.50;1.00;;;14.00;98.20;;;;;;4978848;28;20610;-75
2022/09/15 04:06:14;;;;;;;1.57;1.00;;;14.10;98.20;;;;;;4890891;29;21062;-76
2022/09/15 04:08:41;;;;;;;1.60;1.10;;;14.10;98.20;;;;;;4986298;28;20579;-74
2022/09/15 04:11:12;;;;;;;1.57;1.10;;;14.10;98.20;;;;;;4992454;28;20465;-77
2022/09/15 04:13:40;;;;;;;1.57;1.00;;;14.10;98.20;;;;;;4991582;28;20480;-76
2022/09/15 04:16:09;;;;;;;1.57;1.00;;;14.20;98.20;;;;;;4991133;28;20477;-77
2022/09/15 04:18:36;;;;;;;1.50;1.00;;;14.20;98.20;;;;;;4991656;28;20741;-77
2022/09/15 04:21:05;;;;;;;1.57;1.00;;;14.20;98.20;;;;;;4992127;28;20580;-77
2022/09/15 04:23:33;;;;;;;1.60;1.00;;;14.20;98.20;;;;;;4986132;28;20539;-77
2022/09/15 04:26:02;;;;;;;1.53;1.10;;;14.30;98.20;;;;;;4981085;28;20512;-76
2022/09/15 04:28:33;;;;;;;1.50;1.00;;;14.30;98.20;;;;;;4979978;28;20461;-77
2022/09/15 04:31:04;;;;;;;1.60;1.10;;;14.30;98.20;;;;;;4992435;28;20551;-78
2022/09/15 04:33:31;;;;;;;1.57;1.00;;;14.40;98.20;;;;;;4992747;28;20469;-77
2022/09/15 04:35:59;;;;;;;1.57;1.00;;;14.40;98.20;;;;;;4990357;28;20465;-77
2022/09/15 04:38:26;;;;;;;1.60;1.03;;;14.40;98.20;;;;;;4991161;28;20950;-75
2022/09/15 04:40:54;;;;;;;1.53;1.00;;;14.40;98.20;;;;;;4991294;28;20489;-77
2022/09/15 04:43:21;;;;;;;1.60;1.00;;;14.40;98.20;;;;;;4990780;28;20500;-75
2022/09/15 04:45:49;;;;;;;1.53;1.00;;;14.50;98.20;;;;;;4982409;28;20835;-75
2022/09/15 04:48:16;;;;;;;1.60;1.00;;;14.50;98.20;;;;;;4983874;28;20520;-75
2022/09/15 04:50:43;;;;;;;1.50;0.90;;;14.50;98.20;;;;;;4991330;28;21057;-77
2022/09/15 04:53:10;;;;;;;1.53;1.00;;;14.50;98.20;;;;;;4984816;28;20560;-77
2022/09/15 04:55:37;;;;;;;1.53;1.00;;;14.50;98.20;;;;;;4981258;28;20484;-75
2022/09/15 04:58:05;;;;;;;1.53;1.00;;;14.50;98.20;;;;;;4986186;28;20473;-77
2022/09/15 05:00:33;;;;;;;1.50;0.90;;;14.50;98.20;;;;;;4989523;28;20573;-77
2022/09/15 05:03:02;;;;;;;1.50;1.00;;;14.50;98.20;;;;;;4991027;28;20969;-76
2022/09/15 05:05:29;;;;;;;1.60;1.00;;;14.60;98.20;;;;;;4981350;28;20898;-76
2022/09/15 05:07:59;;;;;;;1.50;1.00;;;14.60;98.20;;;;;;4982612;28;20552;-75
2022/09/15 05:10:26;;;;;;;1.57;1.00;;;14.60;98.20;;;;;;4984332;28;20502;-75
2022/09/15 05:12:53;;;;;;;1.53;1.00;;;14.60;98.20;;;;;;4989208;28;20464;-77
2022/09/15 05:15:21;;;;;;;1.50;1.00;;;14.60;98.20;;;;;;4990161;28;20491;-77
2022/09/15 05:17:48;;;;;;;1.57;1.10;;;14.60;98.20;;;;;;4990561;28;20479;-76
2022/09/15 05:20:17;;;;;;;1.50;1.00;;;14.60;98.20;;;;;;4983154;28;20477;-76
2022/09/15 05:22:44;;;;;;;1.53;1.00;;;14.60;98.20;;;;;;4981635;28;20497;-76
2022/09/15 05:25:12;;;;;;;1.53;1.00;;;14.60;98.20;;;;;;4988310;28;20517;-77
2022/09/15 05:27:40;;;;;;;1.57;1.00;;;14.60;98.20;;;;;;4987441;28;20571;-76
2022/09/15 05:30:08;;;;;;;1.50;0.93;;;14.70;98.20;;;;;;4990667;28;20689;-75
2022/09/15 05:32:35;;;;;;;1.57;1.00;;;14.70;98.20;;;;;;4985022;28;20966;-76
2022/09/15 05:35:02;;;;;;;1.53;1.00;;;14.70;98.20;;;;;;4982792;28;20488;-76
2022/09/15 05:37:34;;;;;;;1.60;1.10;;;14.70;98.20;;;;;;4987912;28;20552;-76
2022/09/15 05:40:01;;;;;;;1.57;0.90;;;14.70;98.20;;;;;;4984837;28;20468;-76
2022/09/15 05:42:30;;;;;;;1.53;1.00;;;14.70;98.20;;;;;;4989818;28;20500;-76
2022/09/15 05:44:57;;;;;;;1.53;1.00;;;14.70;98.20;;;;;;4988948;28;20524;-77
2022/09/15 05:47:24;;;;;;;1.53;1.00;;;14.70;98.20;;;;;;4990759;28;20465;-77
2022/09/15 05:49:53;;;;;;;1.60;1.00;;;14.80;98.20;;;;;;4986008;28;20508;-75
2022/09/15 05:52:21;;;;;;;1.57;1.00;;;14.80;98.20;;;;;;4984058;28;20465;-76
2022/09/15 05:54:49;;;;;;;1.60;1.00;;;14.80;98.20;;;;;;4986700;28;20536;-76
2022/09/15 05:57:16;;;;;;;1.50;1.00;;;14.80;98.20;;;;;;4987978;28;20471;-76
2022/09/15 05:59:50;;;;;;;1.50;1.00;;;14.80;98.20;;;;;;4990888;28;20480;-76
2022/09/15 06:02:17;;;;;;;1.60;1.10;;;14.80;98.20;;;;;;4990073;28;21145;-75
2022/09/15 06:04:45;;;;;;;1.50;1.00;;;14.80;98.20;;;;;;4983727;28;20517;-76
2022/09/15 06:07:12;;;;;;;1.57;1.00;;;14.80;98.20;;;;;;4986351;28;20892;-76
2022/09/15 06:09:39;;;;;;;1.57;0.90;;;14.80;98.20;;;;;;4989466;28;20501;-75
2022/09/15 06:12:08;;;;;;;1.50;1.00;;;14.80;98.20;;;;;;4990644;28;20523;-76
2022/09/15 06:14:35;;;;;;;1.50;1.00;;;14.80;98.20;;;;;;4990746;28;20489;-75
2022/09/15 06:17:02;;;;;;;1.57;1.00;;;14.90;98.20;;;;;;4987889;28;20476;-76
2022/09/15 06:19:36;;;;;;;1.57;1.00;;;14.90;98.20;;;;;;4992757;28;20904;-76
2022/09/15 06:22:04;;;;;;;1.53;1.00;;;15.00;98.20;;;;;;4990904;28;20481;-76
2022/09/15 06:24:31;;;;;;;1.60;1.00;;;15.10;98.20;;;;;;4990371;28;20495;-76
2022/09/15 06:26:58;;;;;;;1.57;1.00;;;15.10;98.20;;;;;;4986434;28;20486;-76
2022/09/15 06:29:27;;;;;;;1.57;1.00;;;15.10;98.20;;;;;;4991035;28;20528;-77
2022/09/15 06:31:55;;;;;;;1.53;1.00;;;15.20;98.20;;;;;;4991337;28;20511;-76
2022/09/15 06:34:23;;;;;;;1.50;1.00;;;15.30;98.20;;;;;;4992110;28;20993;-76
2022/09/15 06:36:50;;;;;;;1.57;1.00;;;15.30;98.20;;;;;;4987606;28;20477;-77
2022/09/15 06:40:00;;;;;;;1.57;1.00;;;15.40;98.20;;;;;;4990262;28;20461;-75
2022/09/15 06:42:28;;;;;;;1.57;1.00;;;15.40;98.20;;;;;;4985723;28;20484;-77
2022/09/15 06:44:57;;;;;;;1.60;1.00;;;15.40;98.20;;;;;;4989596;28;20501;-77
2022/09/15 06:47:24;;;;;;;1.60;1.00;;;15.50;98.20;;;;;;4992018;28;20917;-78
2022/09/15 06:49:54;;;;;;;1.50;1.00;;;15.50;98.20;;;;;;4993066;28;20608;-76
2022/09/15 06:52:26;;;;;;;1.53;1.00;;;15.60;98.20;;;;;;4995149;28;20454;-76
2022/09/15 06:54:54;;;;;;;1.57;1.00;;;15.60;98.20;;;;;;4993434;28;20488;-77
2022/09/15 06:57:21;;;;;;;1.50;0.90;;;15.70;98.20;;;;;;4977537;28;20591;-76
2022/09/15 07:00:00;;;;;;;1.60;1.00;;;15.70;98.20;;;;;;4986266;28;20472;-75
2022/09/15 07:02:29;;;;;;;1.50;0.90;;;15.80;98.20;;;;;;4986358;28;20514;-77
2022/09/15 07:04:57;;;;;;;1.53;1.00;;;15.80;98.20;;;;;;4995418;28;20489;-76
2022/09/15 07:07:25;;;;;;;1.57;1.00;;;15.80;98.20;;;;;;4996760;28;21005;-76
2022/09/15 07:09:54;;;;;;;1.50;1.00;;;15.90;98.20;;;;;;4996167;28;20475;-76
2022/09/15 07:12:21;;;;;;;1.53;1.00;;;15.90;98.20;;;;;;4993871;28;20469;-74
2022/09/15 07:14:48;;;;;;;1.60;1.10;;;16.00;98.20;;;;;;4995723;28;20500;-77
2022/09/15 07:17:17;;;;;;;1.57;1.00;;;16.10;98.20;;;;;;4994379;28;20838;-76
2022/09/15 07:19:44;;;;;;;1.50;1.00;;;16.10;98.20;;;;;;4993702;28;20465;-76
2022/09/15 07:22:11;;;;;;;1.57;1.00;;;16.10;98.20;;;;;;4994908;28;20894;-77
2022/09/15 07:24:39;;;;;;;1.53;0.90;;;16.20;98.20;;;;;;4993576;28;20497;-76
2022/09/15 07:27:09;;;;;;;1.53;1.00;;;16.20;98.20;;;;;;4988536;28;20457;-77
2022/09/15 07:29:37;;;;;;;1.60;1.00;;;16.30;98.20;;;;;;4996183;28;20508;-78
2022/09/15 07:32:05;;;;;;;1.50;1.00;;;16.30;98.20;;;;;;4995306;28;20468;-78
2022/09/15 07:34:34;;;;;;;1.53;1.00;;;16.30;98.20;;;;;;4995028;28;20493;-77
2022/09/15 07:37:01;;;;;;;1.53;1.00;;;16.40;98.20;;;;;;4991938;28;20479;-76
2022/09/15 07:39:29;;;;;;;1.57;1.00;;;16.40;98.20;;;;;;4992361;28;20515;-76
2022/09/15 07:41:58;;;;;;;1.57;1.00;;;16.50;98.20;;;;;;4992151;28;20512;-76
2022/09/15 07:44:28;;;;;;;1.53;1.00;;;16.50;98.20;;;;;;4992351;28;20488;-78
2022/09/15 07:46:56;;;;;;;1.50;0.90;;;16.50;98.20;;;;;;4994581;28;20895;-78
2022/09/15 07:49:23;;;;;;;1.57;1.00;;;16.60;98.20;;;;;;4995320;28;20468;-76
2022/09/15 07:51:51;;;;;;;1.50;0.90;;;16.60;98.20;;;;;;4994978;28;20461;-77
2022/09/15 07:54:18;;;;;;;1.53;0.90;;;16.70;98.20;;;;;;4995444;28;20559;-75
2022/09/15 07:56:46;;;;;;;1.60;1.00;;;16.80;98.20;;;;;;4988632;28;20869;-77
2022/09/15 07:59:16;;;;;;;1.60;1.10;;;16.80;98.20;;;;;;4991075;28;20468;-76
2022/09/15 08:04:25;;;;;;;1.57;1.00;;;16.90;98.20;;;;;;4993992;28;20477;-76
2022/09/15 08:06:54;;;;;;;1.53;1.00;;;16.90;98.20;;;;;;4992398;28;20495;-76
2022/09/15 08:09:21;;;;;;;1.57;1.00;;;16.90;98.20;;;;;;4993279;28;20812;-75
2022/09/15 08:14:38;;;;;;;12.20;9.10;;;17.20;98.20;;;;;;4993638;28;20577;-75
2022/09/15 08:17:05;;;;;;;1.60;1.00;;;17.30;98.20;;;;;;4993056;28;20497;-76
2022/09/15 08:19:34;;;;;;;1.60;1.00;;;17.40;98.20;;;;;;4994935;28;20461;-75
2022/09/15 08:22:05;;;;;;;1.57;0.93;;;17.60;98.20;;;;;;4993470;28;20491;-76
2022/09/15 08:24:32;;;;;;;1.57;0.90;;;17.70;98.20;;;;;;4995289;28;20528;-77
2022/09/15 08:27:00;;;;;;;2.03;1.17;;;17.80;98.20;;;;;;4987395;28;20886;-77
2022/09/15 08:29:28;;;;;;;1.53;0.90;;;17.80;98.20;;;;;;4990019;28;20491;-75
2022/09/15 08:31:55;;;;;;;1.80;1.30;;;17.80;98.20;;;;;;4992704;28;20465;-77
2022/09/15 08:34:23;;;;;;;1.60;0.90;;;17.70;98.20;;;;;;4994860;28;20511;-76
2022/09/15 08:37:00;;;;;;;1.60;1.00;;;17.70;98.20;;;;;;4991933;28;20531;-75
2022/09/15 08:39:29;;;;;;;1.50;0.90;;;17.80;98.20;;;;;;4993911;28;20473;-78
2022/09/15 08:42:02;;;;;;;1.50;0.90;;;17.80;98.20;;;;;;4996777;28;20506;-76
2022/09/15 08:44:40;;;;;;;1.57;0.90;;;17.90;98.20;;;;;;4995297;28;20772;-77
2022/09/15 08:47:13;;;;;;;1.57;0.90;;;18.10;98.20;;;;;;4992805;28;20543;-77
2022/09/15 08:49:47;;;;;;;1.53;1.00;;;18.30;98.20;;;;;;4994488;28;20566;-78
2022/09/15 08:55:06;;;;;;;1.60;0.93;;;18.50;98.20;;;;;;4988271;28;20488;-76
2022/09/15 08:57:33;;;;;;;1.60;1.00;;;18.60;98.20;;;;;;4985755;28;20465;-77
2022/09/15 09:00:00;;;;;;;1.53;0.90;;;18.70;98.20;;;;;;4992443;28;20469;-77
2022/09/15 09:02:50;;;;;;;1.57;0.90;;;18.70;98.20;;;;;;4992938;28;20493;-76
2022/09/15 09:05:56;;;;;;;1.60;1.00;;;18.90;98.20;;;;;;4988631;28;20485;-75
2022/09/15 09:08:43;;;;;;;1.57;0.90;;;19.00;98.20;;;;;;4993266;28;20553;-75
2022/09/15 09:11:19;;;;;;;1.70;1.30;;;19.10;98.20;;;;;;4993539;28;20915;-76
2022/09/15 09:13:52;;;;;;;1.53;0.90;;;19.10;98.20;;;;;;4993343;28;20558;-77
2022/09/15 09:16:42;;;;;;;1.60;1.00;;;19.10;98.20;;;;;;4989016;28;20844;-77
2022/09/15 09:19:37;;;;;;;1.60;1.00;;;19.20;98.20;;;;;;4992021;28;20568;-77
2022/09/15 09:22:09;;;;;;;1.50;0.90;;;19.30;98.20;;;;;;4987068;28;20813;-78
2022/09/15 09:24:40;;;;;;;1.57;0.90;;;19.40;98.20;;;;;;4995053;28;20862;-75
2022/09/15 09:27:13;;;;;;;1.60;0.90;;;19.50;98.20;;;;;;4976381;28;20481;-76
2022/09/15 09:29:48;;;;;;;1.57;0.90;;;19.70;98.20;;;;;;4990835;28;20469;-75
2022/09/15 09:32:19;;;;;;;1.57;0.90;;;19.90;98.20;;;;;;4992462;28;20552;-77
2022/09/15 09:34:54;;;;;;;3.20;2.70;;;20.10;98.20;;;;;;4986523;28;20516;-77
2022/09/15 09:37:22;;;;;;;1.60;1.00;;;20.10;98.20;;;;;;4993462;28;20519;-78
2022/09/15 09:39:53;;;;;;;1.57;1.00;;;20.20;98.20;;;;;;4993734;28;20461;-75
2022/09/15 09:42:28;;;;;;;1.53;0.90;;;20.20;98.20;;;;;;4992842;28;21204;-76
2022/09/15 09:44:55;;;;;;;1.50;0.90;;;20.20;98.20;;;;;;4992182;28;20555;-76
2022/09/15 09:47:36;;;;;;;1.57;0.90;;;20.20;98.20;;;;;;4994066;28;20504;-75
2022/09/15 09:50:03;;;;;;;1.60;1.00;;;20.20;98.20;;;;;;4991855;28;20532;-76
2022/09/15 09:52:35;;;;;;;1.53;0.90;;;20.30;98.20;;;;;;4989441;28;20458;-77
2022/09/15 09:55:03;;;;;;;1.50;0.90;;;20.40;98.20;;;;;;4990662;28;21021;-77
2022/09/15 09:57:36;;;;;;;1.50;0.90;;;20.50;98.20;;;;;;4981609;28;20458;-78
2022/09/15 10:00:19;;;;;;;1.57;0.90;;;20.50;98.20;;;;;;4993228;28;20476;-77
2022/09/15 10:02:48;;;;;;;1.50;0.90;;;20.50;98.20;;;;;;4989631;28;20651;-77
2022/09/15 10:05:29;;;;;;;1.50;0.90;;;20.50;98.20;;;;;;4994539;28;21159;-77
2022/09/15 10:08:02;;;;;;;1.57;0.90;;;20.40;98.20;;;;;;4989108;28;20483;-75
2022/09/15 10:10:32;;;;;;;1.57;0.90;;;20.40;98.20;;;;;;4990785;28;20469;-76
2022/09/15 10:13:03;;;;;;;1.53;0.90;;;20.40;98.20;;;;;;4990635;28;20497;-77
2022/09/15 10:15:35;;;;;;;1.53;0.90;;;20.40;98.20;;;;;;4992310;28;20547;-77
2022/09/15 10:18:06;;;;;;;1.50;0.90;;;20.30;98.20;;;;;;4991554;28;20469;-77
2022/09/15 10:20:38;;;;;;;1.53;0.90;;;20.20;98.20;;;;;;4992601;28;20457;-75
2022/09/15 10:23:22;;;;;;;1.50;1.00;;;20.20;98.20;;;;;;4990012;28;20493;-76
2022/09/15 10:25:51;;;;;;;1.50;0.90;;;20.30;98.20;;;;;;4980848;28;20473;-77
2022/09/15 10:28:22;;;;;;;1.57;0.90;;;20.30;98.20;;;;;;4993034;28;20465;-76
2022/09/15 10:31:04;;;;;;;1.50;0.90;;;20.30;98.20;;;;;;4991769;28;20539;-75
2022/09/15 10:33:36;;;;;;;1.50;0.90;;;20.40;98.20;;;;;;4991795;28;20526;-76
2022/09/15 10:36:07;;;;;;;1.53;0.90;;;20.50;98.20;;;;;;4989827;28;20492;-77
2022/09/15 10:38:44;;;;;;;1.50;0.90;;;20.60;98.20;;;;;;4991908;28;20549;-76
2022/09/15 10:41:22;;;;;;;1.50;0.90;;;20.80;97.20;;;;;;4993889;28;20461;-76
2022/09/15 10:44:03;;;;;;;1.53;0.90;;;20.80;96.90;;;;;;4990703;28;20882;-77
2022/09/15 10:46:48;;;;;;;1.57;0.90;;;20.90;96.40;;;;;;4993375;28;20890;-77
2022/09/15 10:49:33;;;;;;;1.50;0.90;;;20.90;97.70;;;;;;4990873;28;20496;-77
2022/09/15 10:52:13;;;;;;;1.53;0.90;;;21.00;96.50;;;;;;4992634;28;20472;-77
2022/09/15 10:54:58;;;;;;;1.53;0.90;;;21.10;95.30;;;;;;4989245;28;20859;-76
2022/09/15 10:57:41;;;;;;;1.50;0.90;;;21.10;96.70;;;;;;4980629;28;20562;-77
2022/09/15 11:00:13;;;;;;;1.50;0.90;;;21.10;98.20;;;;;;4985717;28;20472;-77
2022/09/15 11:03:01;;;;;;;1.50;0.90;;;21.10;97.50;;;;;;4991957;28;20587;-75
2022/09/15 11:05:41;;;;;;;1.50;0.90;;;21.10;97.50;;;;;;4994412;28;21019;-77
2022/09/15 11:08:45;;;;;;;1.50;0.90;;;21.10;97.30;;;;;;4993437;28;20565;-77
2022/09/15 11:11:21;;;;;;;1.50;0.90;;;21.10;96.80;;;;;;4946568;28;20461;-77
2022/09/15 11:14:03;;;;;;;1.50;0.90;;;21.00;98.20;;;;;;4985959;28;20485;-77
2022/09/15 11:16:45;;;;;;;1.50;0.90;;;20.90;97.10;;;;;;4984321;28;20468;-77
2022/09/15 11:19:37;;;;;;;1.53;0.90;;;20.80;96.80;;;;;;4991367;28;20856;-77
2022/09/15 11:22:11;;;;;;;1.50;0.90;;;20.80;98.00;;;;;;4990706;28;20865;-77
2022/09/15 11:24:45;;;;;;;1.50;0.90;;;20.70;98.20;;;;;;4990845;28;20559;-76
2022/09/15 11:27:18;;;;;;;1.50;0.90;;;20.80;97.60;;;;;;4985355;28;20530;-78
2022/09/15 11:30:02;;;;;;;1.50;0.90;;;20.90;98.20;;;;;;4991097;28;20827;-75
2022/09/15 11:32:36;;;;;;;1.50;0.87;;;21.10;97.40;;;;;;4991086;28;20852;-77
2022/09/15 11:35:25;;;;;;;1.50;0.90;;;21.30;96.40;;;;;;4990502;28;20543;-77
2022/09/15 11:37:56;;;;;;;1.50;0.90;;;21.60;96.00;;;;;;4991234;28;20996;-76
2022/09/15 11:40:28;;;;;;;1.50;0.80;;;21.80;95.60;;;;;;4992044;28;20476;-77
2022/09/15 11:43:01;;;;;;;1.50;0.90;;;21.90;94.90;;;;;;4992065;28;20507;-76
2022/09/15 11:45:38;;;;;;;1.50;0.90;;;22.10;95.20;;;;;;4987881;28;20515;-76
2022/09/15 11:48:18;;;;;;;1.50;0.90;;;22.10;93.60;;;;;;4990080;28;20565;-77
2022/09/15 11:50:50;;;;;;;1.53;0.90;;;22.10;94.20;;;;;;4985807;28;20465;-76
2022/09/15 11:53:27;;;;;;;1.50;0.90;;;22.10;94.60;;;;;;4986263;28;20556;-76
2022/09/15 11:56:20;;;;;;;1.50;0.90;;;22.00;92.70;;;;;;4985425;28;20465;-76
2022/09/15 11:59:14;;;;;;;1.50;0.90;;;21.90;93.30;;;;;;4986100;28;20985;-75
2022/09/15 12:01:50;;;;;;;1.50;0.83;;;21.90;94.60;;;;;;4979647;28;20462;-76
2022/09/15 12:04:28;;;;;;;1.50;0.90;;;21.80;93.10;;;;;;4984522;28;20579;-75
2022/09/15 12:07:09;;;;;;;1.50;0.90;;;21.70;93.70;;;;;;4986549;28;20469;-75
2022/09/15 12:09:36;;;;;;;1.50;0.90;;;21.70;93.50;;;;;;4986204;28;20483;-75
2022/09/15 12:14:52;;;;;;;1.50;0.90;;;21.60;93.80;;;;;;4991699;28;20488;-76
2022/09/15 12:17:38;;;;;;;1.50;0.90;;;21.70;93.20;;;;;;4993105;28;20559;-75
2022/09/15 12:20:15;;;;;;;1.53;1.00;;;21.90;93.50;;;;;;4992171;28;20469;-76
2022/09/15 12:22:48;;;;;;;1.50;0.90;;;22.10;92.00;;;;;;4992985;28;20567;-76
2022/09/15 12:25:20;;;;;;;1.50;0.90;;;22.30;89.90;;;;;;4995294;28;21028;-75
2022/09/15 12:28:20;;;;;;;1.70;0.90;;;22.40;91.80;;;;;;4976666;28;20554;-77
2022/09/15 12:30:50;;;;;;;1.50;0.90;;;22.30;89.90;;;;;;4994876;28;20469;-74
2022/09/15 12:33:53;;;;;;;1.50;0.90;;;22.20;89.90;;;;;;4989125;28;20479;-76
2022/09/15 12:36:51;;;;;;;1.50;0.90;;;22.10;89.70;;;;;;4993004;28;20472;-76
2022/09/15 12:39:37;;;;;;;1.50;0.90;;;21.80;90.20;;;;;;4978206;28;20497;-76
2022/09/15 12:42:28;;;;;;;2.33;1.73;;;21.60;90.00;;;;;;4987690;28;20499;-76
2022/09/15 12:45:01;;;;;;;1.70;1.10;;;21.40;90.90;;;;;;4991463;28;20496;-76
2022/09/15 12:47:35;;;;;;;1.50;0.90;;;21.20;91.30;;;;;;4994931;28;20508;-75
2022/09/15 12:50:21;;;;;;;1.50;0.90;;;21.00;91.10;;;;;;4991407;28;20893;-76
2022/09/15 12:52:56;;;;;;;1.60;1.10;;;20.90;92.30;;;;;;4994049;28;20926;-76
2022/09/15 12:55:26;;;;;;;1.50;0.90;;;20.90;93.30;;;;;;4993167;28;20552;-76
2022/09/15 12:57:58;;;;;;;1.50;0.90;;;20.80;92.90;;;;;;4982854;28;20974;-77
2022/09/15 13:00:38;;;;;;;1.50;0.90;;;20.70;94.00;;;;;;4993890;28;20508;-77
2022/09/15 13:03:06;;;;;;;1.50;0.90;;;20.60;94.00;;;;;;4989302;28;20872;-77
2022/09/15 13:06:18;;;;;;;1.50;0.90;;;20.50;94.10;;;;;;4989601;28;21095;-77
2022/09/15 13:09:25;;;;;;;1.50;0.90;;;20.50;95.40;;;;;;4979453;28;20540;-78
2022/09/15 13:11:55;;;;;;;1.50;0.90;;;20.50;95.70;;;;;;4984349;28;20492;-77
2022/09/15 13:14:32;;;;;;;1.50;0.90;;;20.40;95.60;;;;;;4984843;28;20841;-75
2022/09/15 13:17:05;;;;;;;1.50;0.90;;;20.20;95.10;;;;;;4990801;28;21009;-76
2022/09/15 13:19:48;;;;;;;1.50;0.90;;;20.10;96.00;;;;;;4991528;28;20472;-75
2022/09/15 13:22:31;;;;;;;1.50;0.90;;;20.00;96.80;;;;;;4991613;28;20535;-77
2022/09/15 13:25:04;;;;;;;1.50;0.90;;;19.90;96.90;;;;;;4990030;28;20493;-76
2022/09/15 13:27:43;;;;;;;1.50;0.90;;;19.80;95.20;;;;;;4985436;28;20457;-76
2022/09/15 13:30:29;;;;;;;1.50;0.90;;;19.70;94.90;;;;;;4991651;28;20883;-77
2022/09/15 13:33:14;;;;;;;1.50;0.90;;;19.60;94.30;;;;;;4990880;28;20473;-75
2022/09/15 13:36:05;;;;;;;1.50;0.90;;;19.50;95.10;;;;;;4990649;28;20524;-75
2022/09/15 13:38:57;;;;;;;1.50;0.90;;;19.40;96.90;;;;;;4988907;28;20464;-76